createdAt,value
2022-10-06T00:00:03.367Z,16.90
2022-10-06T00:00:26.071Z,14.20
2022-10-06T00:00:48.811Z,16.30
2022-10-06T00:01:14.031Z,16.67
2022-10-06T00:01:36.931Z,17.15
2022-10-06T00:01:59.576Z,16.23
2022-10-06T00:02:22.467Z,14.52
2022-10-06T00:02:46.610Z,17.38
2022-10-06T00:03:10.732Z,18.70
2022-10-06T00:03:33.401Z,15.88
2022-10-06T00:03:56.127Z,16.00
2022-10-06T00:04:18.776Z,17.52
2022-10-06T00:04:41.471Z,16.55
2022-10-06T00:05:04.497Z,15.85
2022-10-06T00:05:27.321Z,14.55
2022-10-06T00:05:51.517Z,13.05
2022-10-06T00:06:15.147Z,13.27
2022-10-06T00:06:37.912Z,14.73
2022-10-06T00:07:00.637Z,14.18
2022-10-06T00:07:23.459Z,17.92
2022-10-06T00:07:46.097Z,16.38
2022-10-06T00:08:10.262Z,16.25
2022-10-06T00:08:33.909Z,15.85
2022-10-06T00:08:56.581Z,14.30
2022-10-06T00:09:19.252Z,15.05
2022-10-06T00:09:41.917Z,15.50
2022-10-06T00:10:05.253Z,15.18
2022-10-06T00:10:28.058Z,16.20
2022-10-06T00:10:50.761Z,16.08
2022-10-06T00:11:14.076Z,15.30
2022-10-06T00:11:37.777Z,15.45
2022-10-06T00:12:00.711Z,14.48
2022-10-06T00:12:23.466Z,13.57
2022-10-06T00:12:47.367Z,16.33
2022-10-06T00:13:10.201Z,16.40
2022-10-06T00:13:32.936Z,17.17
2022-10-06T00:13:55.711Z,18.60
2022-10-06T00:14:18.386Z,15.68
2022-10-06T00:14:40.990Z,15.20
2022-10-06T00:15:03.847Z,14.45
2022-10-06T00:15:27.807Z,16.15
2022-10-06T00:15:50.664Z,20.75
2022-10-06T00:16:15.310Z,16.85
2022-10-06T00:16:38.232Z,16.23
2022-10-06T00:17:00.951Z,14.43
2022-10-06T00:17:23.747Z,14.13
2022-10-06T00:17:46.555Z,15.95
2022-10-06T00:18:10.657Z,16.85
2022-10-06T00:18:33.427Z,16.67
2022-10-06T00:18:57.131Z,17.17
2022-10-06T00:19:19.834Z,15.57
2022-10-06T00:19:42.561Z,16.02
2022-10-06T00:20:06.716Z,18.95
2022-10-06T00:20:29.722Z,17.80
2022-10-06T00:20:55.933Z,20.25
2022-10-06T00:21:18.626Z,14.48
2022-10-06T00:21:41.279Z,15.70
2022-10-06T00:22:04.071Z,16.40
2022-10-06T00:22:26.772Z,15.23
2022-10-06T00:22:50.096Z,15.88
2022-10-06T00:23:12.891Z,17.30
2022-10-06T00:23:35.987Z,17.13
2022-10-06T00:23:58.726Z,16.23
2022-10-06T00:24:21.397Z,15.75
2022-10-06T00:24:44.036Z,15.18
2022-10-06T00:25:07.362Z,17.73
2022-10-06T00:25:30.066Z,17.10
2022-10-06T00:25:52.848Z,15.45
2022-10-06T00:26:17.439Z,14.93
2022-10-06T00:26:40.435Z,15.98
2022-10-06T00:27:04.261Z,16.90
2022-10-06T00:27:33.405Z,16.23
2022-10-06T00:27:56.783Z,19.40
2022-10-06T00:28:19.560Z,16.40
2022-10-06T00:28:42.705Z,16.88
2022-10-06T00:29:05.702Z,14.55
2022-10-06T00:29:28.474Z,12.65
2022-10-06T00:29:51.201Z,13.98
2022-10-06T00:30:15.071Z,13.57
2022-10-06T00:30:37.884Z,14.05
2022-10-06T00:31:01.990Z,13.20
2022-10-06T00:31:24.954Z,14.60
2022-10-06T00:31:47.705Z,16.60
2022-10-06T00:32:10.756Z,14.73
2022-10-06T00:32:33.472Z,16.75
2022-10-06T00:32:57.811Z,13.30
2022-10-06T00:33:21.971Z,13.27
2022-10-06T00:33:44.791Z,14.13
2022-10-06T00:34:07.537Z,13.75
2022-10-06T00:34:30.227Z,13.80
2022-10-06T00:34:53.616Z,14.88
2022-10-06T00:35:16.333Z,12.60
2022-10-06T00:35:39.046Z,13.82
2022-10-06T00:36:01.758Z,13.82
2022-10-06T00:36:24.500Z,11.02
2022-10-06T00:36:47.233Z,10.60
2022-10-06T00:37:10.154Z,10.63
2022-10-06T00:37:35.414Z,12.00
2022-10-06T00:37:58.206Z,11.80
2022-10-06T00:38:20.955Z,11.82
2022-10-06T00:38:44.851Z,12.23
2022-10-06T00:39:07.520Z,13.45
2022-10-06T00:39:30.227Z,11.88
2022-10-06T00:39:53.066Z,12.32
2022-10-06T00:40:15.958Z,13.15
2022-10-06T00:40:43.360Z,12.55
2022-10-06T00:41:06.310Z,12.82
2022-10-06T00:41:29.127Z,14.43
2022-10-06T00:41:51.860Z,14.82
2022-10-06T00:42:24.297Z,15.68
2022-10-06T00:42:54.880Z,16.38
2022-10-06T00:43:40.178Z,13.55
2022-10-06T00:44:02.980Z,14.95
2022-10-06T00:44:25.700Z,16.50
2022-10-06T00:44:52.321Z,14.93
2022-10-06T00:45:14.994Z,16.27
2022-10-06T00:45:39.841Z,14.00
2022-10-06T00:46:02.526Z,13.50
2022-10-06T00:46:35.980Z,13.50
2022-10-06T00:46:58.900Z,13.27
2022-10-06T00:47:22.397Z,14.55
2022-10-06T00:47:45.657Z,12.05
2022-10-06T00:48:11.637Z,14.00
2022-10-06T00:48:35.851Z,12.90
2022-10-06T00:49:04.386Z,12.15
2022-10-06T00:49:31.626Z,13.70
2022-10-06T00:49:55.742Z,13.38
2022-10-06T00:50:18.442Z,15.68
2022-10-06T00:50:41.169Z,13.40
2022-10-06T00:51:06.576Z,14.25
2022-10-06T00:51:29.431Z,13.32
2022-10-06T00:51:55.212Z,15.25
2022-10-06T00:52:19.510Z,12.98
2022-10-06T00:52:42.237Z,11.05
2022-10-06T00:53:04.929Z,11.13
2022-10-06T00:53:28.572Z,13.35
2022-10-06T00:53:51.897Z,12.48
2022-10-06T00:54:14.520Z,12.75
2022-10-06T00:54:37.323Z,12.02
2022-10-06T00:55:00.105Z,11.07
2022-10-06T00:55:22.761Z,11.70
2022-10-06T00:55:46.079Z,11.68
2022-10-06T00:56:08.796Z,11.30
2022-10-06T00:56:31.601Z,12.65
2022-10-06T00:56:54.296Z,10.98
2022-10-06T00:57:17.026Z,13.93
2022-10-06T00:57:40.060Z,12.15
2022-10-06T00:58:02.712Z,12.70
2022-10-06T00:58:25.911Z,12.43
2022-10-06T00:58:50.421Z,12.02
2022-10-06T00:59:13.910Z,12.88
2022-10-06T00:59:36.650Z,15.18
2022-10-06T00:59:59.406Z,15.02
2022-10-06T01:00:22.195Z,12.65
2022-10-06T01:00:44.927Z,12.18
2022-10-06T01:01:07.735Z,14.35
2022-10-06T01:01:30.566Z,12.88
2022-10-06T01:01:55.918Z,14.48
2022-10-06T01:02:20.584Z,16.15
2022-10-06T01:02:45.223Z,13.15
2022-10-06T01:03:09.801Z,12.98
2022-10-06T01:03:33.840Z,13.63
2022-10-06T01:03:59.687Z,13.25
2022-10-06T01:04:22.960Z,12.13
2022-10-06T01:04:47.389Z,13.38
2022-10-06T01:05:10.646Z,12.60
2022-10-06T01:05:35.340Z,11.60
2022-10-06T01:05:58.151Z,11.45
2022-10-06T01:06:23.272Z,13.32
2022-10-06T01:06:48.443Z,11.90
2022-10-06T01:07:11.467Z,12.45
2022-10-06T01:07:34.198Z,15.45
2022-10-06T01:07:56.895Z,11.23
2022-10-06T01:08:19.489Z,10.55
2022-10-06T01:08:42.128Z,12.27
2022-10-06T01:09:04.828Z,12.23
2022-10-06T01:09:27.576Z,13.00
2022-10-06T01:09:50.287Z,13.15
2022-10-06T01:10:12.963Z,14.57
2022-10-06T01:10:35.707Z,13.40
2022-10-06T01:10:58.437Z,12.50
2022-10-06T01:11:23.522Z,12.88
2022-10-06T01:11:47.584Z,11.90
2022-10-06T01:12:10.406Z,11.65
2022-10-06T01:12:35.429Z,12.35
2022-10-06T01:12:58.471Z,11.93
2022-10-06T01:13:21.166Z,11.88
2022-10-06T01:13:44.456Z,15.98
2022-10-06T01:14:07.206Z,14.02
2022-10-06T01:14:29.922Z,13.70
2022-10-06T01:14:52.703Z,13.23
2022-10-06T01:15:16.059Z,11.93
2022-10-06T01:15:39.715Z,11.65
2022-10-06T01:16:04.304Z,11.82
2022-10-06T01:16:27.416Z,12.02
2022-10-06T01:16:52.331Z,11.48
2022-10-06T01:17:19.161Z,13.50
2022-10-06T01:17:44.182Z,12.95
2022-10-06T01:18:13.942Z,12.98
2022-10-06T01:18:36.697Z,16.35
2022-10-06T01:19:01.817Z,15.43
2022-10-06T01:19:31.872Z,18.17
2022-10-06T01:19:55.752Z,18.15
2022-10-06T01:20:19.218Z,16.33
2022-10-06T01:20:42.443Z,14.00
2022-10-06T01:21:16.188Z,15.73
2022-10-06T01:21:40.486Z,16.23
2022-10-06T01:22:05.946Z,17.08
2022-10-06T01:22:30.419Z,14.90
2022-10-06T01:22:54.819Z,13.20
2022-10-06T01:23:17.616Z,14.15
2022-10-06T01:23:40.326Z,16.27
2022-10-06T01:24:03.340Z,15.90
2022-10-06T01:24:26.068Z,19.38
2022-10-06T01:24:50.796Z,18.65
2022-10-06T01:25:14.877Z,19.27
2022-10-06T01:25:37.645Z,22.02
2022-10-06T01:26:00.391Z,21.25
2022-10-06T01:26:23.825Z,22.13
2022-10-06T01:26:48.804Z,21.92
2022-10-06T01:27:11.753Z,26.27
2022-10-06T01:27:35.145Z,28.40
2022-10-06T01:27:57.970Z,28.52
2022-10-06T01:28:20.690Z,28.35
2022-10-06T01:28:43.404Z,32.15
2022-10-06T01:29:06.244Z,32.35
2022-10-06T01:29:28.973Z,33.28
2022-10-06T01:29:53.123Z,35.17
2022-10-06T01:30:17.604Z,31.40
2022-10-06T01:30:44.008Z,29.90
2022-10-06T01:31:06.790Z,34.63
2022-10-06T01:31:29.520Z,33.83
2022-10-06T01:31:52.149Z,27.38
2022-10-06T01:32:14.918Z,25.80
2022-10-06T01:32:38.793Z,22.33
2022-10-06T01:33:01.438Z,19.85
2022-10-06T01:33:24.268Z,20.48
2022-10-06T01:33:51.493Z,27.15
2022-10-06T01:34:14.368Z,27.05
2022-10-06T01:34:37.099Z,34.20
2022-10-06T01:34:59.714Z,24.42
2022-10-06T01:35:22.538Z,34.13
2022-10-06T01:35:46.036Z,39.17
2022-10-06T01:36:08.723Z,41.20
2022-10-06T01:36:31.542Z,41.22
2022-10-06T01:36:54.405Z,44.88
2022-10-06T01:37:17.128Z,34.13
2022-10-06T01:37:42.233Z,25.15
2022-10-06T01:38:04.960Z,35.13
2022-10-06T01:38:27.986Z,39.90
2022-10-06T01:38:51.039Z,32.25
2022-10-06T01:39:13.754Z,38.80
2022-10-06T01:39:37.538Z,35.30
2022-10-06T01:40:00.328Z,29.13
2022-10-06T01:40:23.509Z,31.83
2022-10-06T01:40:46.239Z,31.67
2022-10-06T01:41:09.004Z,40.78
2022-10-06T01:41:33.451Z,50.78
2022-10-06T01:41:56.253Z,44.13
2022-10-06T01:42:19.003Z,33.20
2022-10-06T01:42:41.758Z,30.33
2022-10-06T01:43:04.474Z,35.95
2022-10-06T01:43:27.193Z,45.38
2022-10-06T01:43:50.019Z,39.53
2022-10-06T01:44:12.896Z,33.75
2022-10-06T01:44:35.701Z,39.97
2022-10-06T01:44:58.386Z,39.50
2022-10-06T01:45:21.106Z,46.45
2022-10-06T01:45:43.836Z,58.80
2022-10-06T01:46:06.799Z,52.88
2022-10-06T01:46:30.120Z,60.10
2022-10-06T01:46:55.524Z,58.25
2022-10-06T01:47:18.840Z,76.72
2022-10-06T01:47:41.602Z,61.95
2022-10-06T01:48:04.690Z,51.92
2022-10-06T01:48:27.989Z,60.67
2022-10-06T01:48:51.171Z,76.93
2022-10-06T01:49:13.810Z,53.80
2022-10-06T01:49:40.644Z,49.88
2022-10-06T01:50:07.364Z,44.17
2022-10-06T01:50:30.084Z,54.10
2022-10-06T01:50:53.710Z,51.42
2022-10-06T01:51:16.565Z,42.97
2022-10-06T01:51:39.300Z,42.92
2022-10-06T01:52:02.065Z,41.65
2022-10-06T01:52:25.255Z,40.15
2022-10-06T01:52:49.525Z,40.53
2022-10-06T01:53:12.245Z,33.53
2022-10-06T01:53:35.014Z,40.75
2022-10-06T01:53:57.960Z,45.67
2022-10-06T01:54:23.267Z,30.92
2022-10-06T01:54:45.960Z,41.88
2022-10-06T01:55:09.274Z,38.80
2022-10-06T01:55:32.049Z,41.10
2022-10-06T01:55:58.630Z,40.10
2022-10-06T01:56:21.363Z,31.88
2022-10-06T01:56:44.116Z,38.75
2022-10-06T01:57:08.369Z,35.92
2022-10-06T01:57:31.029Z,30.52
2022-10-06T01:57:53.794Z,35.17
2022-10-06T01:58:16.540Z,35.53
2022-10-06T01:58:39.294Z,31.77
2022-10-06T01:59:02.005Z,31.35
2022-10-06T01:59:24.806Z,38.22
2022-10-06T01:59:50.553Z,31.38
2022-10-06T02:00:16.666Z,30.83
2022-10-06T02:00:40.194Z,32.10
2022-10-06T02:01:07.376Z,32.33
2022-10-06T02:01:30.119Z,31.80
2022-10-06T02:01:53.114Z,33.92
2022-10-06T02:02:16.075Z,35.00
2022-10-06T02:02:38.839Z,43.88
2022-10-06T02:03:01.597Z,33.42
2022-10-06T02:03:24.653Z,31.13
2022-10-06T02:03:47.350Z,26.50
2022-10-06T02:04:10.135Z,29.45
2022-10-06T02:04:32.885Z,34.50
2022-10-06T02:04:55.510Z,34.95
2022-10-06T02:05:18.401Z,34.05
2022-10-06T02:05:41.065Z,29.02
2022-10-06T02:06:04.085Z,20.55
2022-10-06T02:06:29.612Z,25.30
2022-10-06T02:06:52.344Z,25.90
2022-10-06T02:07:15.073Z,27.65
2022-10-06T02:07:37.890Z,24.80
2022-10-06T02:08:02.783Z,32.85
2022-10-06T02:08:26.025Z,31.80
2022-10-06T02:08:49.057Z,27.00
2022-10-06T02:09:11.837Z,36.97
2022-10-06T02:09:37.096Z,20.95
2022-10-06T02:09:59.782Z,30.17
2022-10-06T02:10:22.531Z,24.33
2022-10-06T02:10:45.228Z,19.20
2022-10-06T02:11:12.508Z,20.40
2022-10-06T02:11:35.301Z,23.70
2022-10-06T02:11:57.962Z,19.60
2022-10-06T02:12:20.773Z,20.50
2022-10-06T02:12:43.501Z,19.83
2022-10-06T02:13:06.161Z,21.08
2022-10-06T02:13:30.427Z,19.45
2022-10-06T02:13:53.293Z,22.90
2022-10-06T02:14:18.162Z,20.80
2022-10-06T02:14:40.818Z,18.90
2022-10-06T02:15:03.784Z,17.77
2022-10-06T02:15:27.333Z,16.00
2022-10-06T02:15:51.236Z,13.82
2022-10-06T02:16:14.356Z,14.63
2022-10-06T02:16:37.397Z,17.98
2022-10-06T02:17:00.656Z,15.60
2022-10-06T02:17:23.462Z,15.27
2022-10-06T02:17:47.054Z,14.57
2022-10-06T02:18:09.857Z,16.20
2022-10-06T02:18:32.786Z,14.98
2022-10-06T02:18:55.650Z,14.77
2022-10-06T02:19:18.591Z,16.20
2022-10-06T02:19:41.229Z,17.23
2022-10-06T02:20:04.242Z,14.52
2022-10-06T02:20:27.024Z,14.98
2022-10-06T02:20:49.762Z,16.48
2022-10-06T02:21:16.229Z,17.60
2022-10-06T02:21:39.037Z,19.52
2022-10-06T02:22:01.788Z,15.70
2022-10-06T02:22:24.523Z,14.68
2022-10-06T02:22:47.517Z,15.25
2022-10-06T02:23:11.724Z,27.38
2022-10-06T02:23:34.559Z,26.95
2022-10-06T02:23:57.286Z,28.17
2022-10-06T02:24:20.134Z,27.67
2022-10-06T02:24:43.024Z,25.17
2022-10-06T02:25:06.083Z,23.08
2022-10-06T02:25:28.759Z,20.33
2022-10-06T02:25:58.529Z,24.80
2022-10-06T02:26:21.283Z,45.08
2022-10-06T02:26:44.025Z,31.77
2022-10-06T02:27:07.063Z,39.78
2022-10-06T02:27:29.760Z,54.75
2022-10-06T02:27:52.538Z,57.97
2022-10-06T02:28:16.899Z,61.60
2022-10-06T02:28:39.848Z,45.97
2022-10-06T02:29:02.574Z,65.80
2022-10-06T02:29:26.333Z,69.22
2022-10-06T02:29:50.282Z,49.38
2022-10-06T02:30:14.607Z,44.17
2022-10-06T02:30:37.604Z,57.00
2022-10-06T02:31:03.315Z,47.40
2022-10-06T02:31:26.170Z,42.70
2022-10-06T02:31:49.669Z,34.72
2022-10-06T02:32:12.339Z,58.25
2022-10-06T02:32:35.698Z,44.25
2022-10-06T02:32:58.669Z,46.60
2022-10-06T02:33:21.443Z,42.83
2022-10-06T02:33:44.979Z,36.13
2022-10-06T02:34:07.678Z,36.97
2022-10-06T02:34:30.320Z,38.78
2022-10-06T02:34:53.173Z,43.83
2022-10-06T02:35:17.188Z,45.65
2022-10-06T02:35:39.949Z,45.45
2022-10-06T02:36:02.590Z,42.72
2022-10-06T02:36:25.843Z,44.63
2022-10-06T02:36:48.565Z,44.08
2022-10-06T02:37:12.304Z,74.45
2022-10-06T02:37:35.163Z,70.55
2022-10-06T02:37:57.938Z,38.58
2022-10-06T02:38:22.063Z,35.17
2022-10-06T02:38:44.755Z,35.47
2022-10-06T02:39:08.594Z,32.90
2022-10-06T02:39:31.298Z,32.78
2022-10-06T02:39:54.079Z,50.58
2022-10-06T02:40:16.893Z,69.03
2022-10-06T02:40:39.598Z,83.72
2022-10-06T02:41:02.249Z,45.47
2022-10-06T02:41:25.737Z,35.80
2022-10-06T02:41:48.384Z,44.03
2022-10-06T02:42:11.388Z,26.67
2022-10-06T02:42:36.079Z,37.00
2022-10-06T02:42:59.350Z,46.60
2022-10-06T02:43:22.121Z,24.42
2022-10-06T02:43:44.901Z,39.95
2022-10-06T02:44:07.776Z,33.97
2022-10-06T02:44:30.522Z,39.65
2022-10-06T02:44:54.173Z,49.80
2022-10-06T02:45:16.983Z,37.67
2022-10-06T02:45:39.708Z,42.70
2022-10-06T02:46:03.698Z,33.22
2022-10-06T02:46:26.622Z,26.10
2022-10-06T02:46:53.818Z,27.85
2022-10-06T02:47:16.881Z,45.03
2022-10-06T02:47:39.626Z,53.20
2022-10-06T02:48:02.549Z,51.60
2022-10-06T02:48:25.556Z,44.88
2022-10-06T02:48:48.515Z,40.78
2022-10-06T02:49:11.283Z,39.10
2022-10-06T02:49:33.974Z,36.30
2022-10-06T02:49:56.682Z,32.60
2022-10-06T02:50:19.370Z,39.85
2022-10-06T02:50:42.749Z,34.00
2022-10-06T02:51:09.689Z,29.05
2022-10-06T02:51:33.254Z,19.05
2022-10-06T02:51:55.949Z,24.70
2022-10-06T02:52:18.675Z,31.20
2022-10-06T02:52:43.065Z,31.70
2022-10-06T02:53:08.806Z,25.25
2022-10-06T02:53:32.950Z,25.60
2022-10-06T02:53:55.680Z,30.73
2022-10-06T02:54:18.474Z,44.80
2022-10-06T02:54:43.779Z,40.97
2022-10-06T02:55:08.159Z,42.28
2022-10-06T02:55:31.365Z,27.52
2022-10-06T02:55:59.524Z,31.30
2022-10-06T02:56:23.004Z,37.75
2022-10-06T02:56:46.291Z,32.53
2022-10-06T02:57:09.616Z,37.83
2022-10-06T02:57:32.311Z,28.98
2022-10-06T02:57:55.365Z,33.37
2022-10-06T02:58:18.069Z,44.38
2022-10-06T02:58:42.899Z,38.30
2022-10-06T02:59:05.647Z,28.27
2022-10-06T02:59:28.359Z,23.70
2022-10-06T02:59:51.528Z,20.65
2022-10-06T03:00:15.248Z,21.90
2022-10-06T03:00:37.929Z,26.08
2022-10-06T03:01:03.561Z,44.90
2022-10-06T03:01:27.830Z,38.40
2022-10-06T03:01:50.698Z,30.30
2022-10-06T03:02:13.501Z,27.63
2022-10-06T03:02:36.414Z,20.27
2022-10-06T03:02:59.845Z,21.17
2022-10-06T03:03:22.587Z,20.33
2022-10-06T03:03:46.804Z,21.30
2022-10-06T03:04:11.993Z,18.35
2022-10-06T03:04:34.661Z,16.95
2022-10-06T03:04:57.429Z,17.27
2022-10-06T03:05:20.159Z,19.05
2022-10-06T03:05:43.202Z,15.90
2022-10-06T03:06:07.037Z,15.02
2022-10-06T03:06:31.189Z,19.27
2022-10-06T03:06:54.258Z,17.67
2022-10-06T03:07:17.112Z,14.43
2022-10-06T03:07:39.837Z,13.48
2022-10-06T03:08:02.512Z,13.20
2022-10-06T03:08:25.298Z,13.60
2022-10-06T03:08:50.072Z,12.07
2022-10-06T03:09:12.803Z,12.73
2022-10-06T03:09:35.549Z,12.73
2022-10-06T03:09:58.346Z,13.13
2022-10-06T03:10:21.088Z,11.85
2022-10-06T03:10:43.722Z,12.48
2022-10-06T03:11:07.360Z,12.10
2022-10-06T03:11:31.214Z,11.75
2022-10-06T03:11:54.120Z,11.63
2022-10-06T03:12:16.812Z,11.57
2022-10-06T03:12:39.529Z,11.68
2022-10-06T03:13:02.545Z,10.73
2022-10-06T03:13:25.274Z,10.68
2022-10-06T03:13:49.623Z,10.75
2022-10-06T03:14:12.271Z,10.48
2022-10-06T03:14:37.907Z,10.82
2022-10-06T03:15:00.650Z,10.95
2022-10-06T03:15:23.679Z,10.07
2022-10-06T03:15:46.718Z,10.43
2022-10-06T03:16:15.277Z,10.68
2022-10-06T03:16:39.209Z,11.82
2022-10-06T03:17:02.238Z,15.15
2022-10-06T03:17:24.993Z,13.88
2022-10-06T03:17:49.588Z,11.38
2022-10-06T03:18:13.056Z,11.43
2022-10-06T03:18:36.312Z,11.02
2022-10-06T03:18:59.057Z,12.13
2022-10-06T03:19:21.762Z,11.30
2022-10-06T03:19:44.437Z,11.18
2022-10-06T03:20:08.542Z,10.60
2022-10-06T03:20:31.230Z,10.90
2022-10-06T03:20:54.276Z,10.80
2022-10-06T03:21:16.958Z,11.30
2022-10-06T03:21:40.552Z,10.65
2022-10-06T03:22:03.503Z,13.52
2022-10-06T03:22:26.327Z,11.23
2022-10-06T03:22:48.968Z,11.52
2022-10-06T03:23:13.695Z,12.02
2022-10-06T03:23:36.623Z,12.68
2022-10-06T03:24:00.988Z,12.82
2022-10-06T03:24:23.752Z,12.43
2022-10-06T03:24:46.598Z,12.90
2022-10-06T03:25:10.808Z,13.68
2022-10-06T03:25:33.938Z,14.32
2022-10-06T03:25:57.647Z,13.63
2022-10-06T03:26:22.596Z,11.77
2022-10-06T03:26:46.486Z,11.80
2022-10-06T03:27:09.286Z,11.63
2022-10-06T03:27:32.142Z,10.95
2022-10-06T03:27:54.934Z,10.15
2022-10-06T03:28:17.649Z,10.57
2022-10-06T03:28:40.421Z,10.23
2022-10-06T03:29:04.461Z,10.30
2022-10-06T03:29:31.076Z,9.98
2022-10-06T03:29:53.676Z,10.30
2022-10-06T03:30:16.451Z,11.02
2022-10-06T03:30:39.172Z,10.48
2022-10-06T03:31:03.123Z,10.00
2022-10-06T03:31:25.982Z,9.88
2022-10-06T03:31:48.902Z,9.98
2022-10-06T03:32:11.723Z,9.90
2022-10-06T03:32:35.127Z,9.93
2022-10-06T03:33:00.023Z,9.77
2022-10-06T03:33:22.720Z,9.55
2022-10-06T03:33:45.370Z,9.35
2022-10-06T03:34:08.169Z,10.15
2022-10-06T03:34:30.819Z,10.13
2022-10-06T03:34:53.590Z,9.82
2022-10-06T03:35:16.627Z,9.40
2022-10-06T03:35:39.299Z,9.13
2022-10-06T03:36:02.634Z,8.68
2022-10-06T03:36:26.292Z,8.57
2022-10-06T03:36:49.014Z,10.45
2022-10-06T03:37:11.749Z,8.25
2022-10-06T03:37:34.549Z,8.82
2022-10-06T03:37:59.184Z,8.32
2022-10-06T03:38:21.939Z,8.93
2022-10-06T03:38:44.629Z,9.20
2022-10-06T03:39:09.926Z,9.07
2022-10-06T03:39:34.565Z,8.32
2022-10-06T03:39:57.411Z,8.27
2022-10-06T03:40:20.192Z,7.97
2022-10-06T03:40:42.979Z,8.23
2022-10-06T03:41:06.109Z,10.65
2022-10-06T03:41:29.584Z,11.73
2022-10-06T03:41:52.251Z,9.95
2022-10-06T03:42:15.039Z,10.10
2022-10-06T03:42:37.639Z,8.40
2022-10-06T03:43:00.405Z,8.65
2022-10-06T03:43:26.399Z,8.15
2022-10-06T03:43:50.465Z,8.68
2022-10-06T03:44:13.225Z,8.27
2022-10-06T03:44:39.033Z,8.82
2022-10-06T03:45:02.844Z,8.43
2022-10-06T03:45:25.553Z,7.82
2022-10-06T03:45:57.008Z,8.02
2022-10-06T03:46:21.585Z,8.25
2022-10-06T03:46:44.321Z,7.97
2022-10-06T03:47:13.219Z,9.60
2022-10-06T03:47:38.935Z,13.20
2022-10-06T03:48:01.699Z,9.30
2022-10-06T03:48:24.470Z,9.00
2022-10-06T03:48:47.222Z,8.90
2022-10-06T03:49:09.854Z,9.75
2022-10-06T03:49:32.769Z,10.05
2022-10-06T03:49:55.395Z,10.30
2022-10-06T03:50:19.087Z,9.68
2022-10-06T03:50:43.940Z,10.88
2022-10-06T03:51:07.815Z,10.45
2022-10-06T03:51:31.890Z,8.73
2022-10-06T03:51:54.646Z,8.75
2022-10-06T03:52:18.601Z,8.77
2022-10-06T03:52:44.034Z,10.07
2022-10-06T03:53:06.721Z,10.85
2022-10-06T03:53:30.069Z,8.70
2022-10-06T03:53:52.964Z,9.55
2022-10-06T03:54:17.130Z,8.75
2022-10-06T03:54:39.725Z,9.20
2022-10-06T03:55:05.815Z,8.50
2022-10-06T03:55:28.704Z,10.07
2022-10-06T03:56:01.932Z,15.15
2022-10-06T03:56:25.274Z,10.65
2022-10-06T03:56:48.033Z,10.10
2022-10-06T03:57:10.869Z,8.77
2022-10-06T03:57:33.545Z,10.80
2022-10-06T03:57:57.406Z,9.98
2022-10-06T03:58:20.083Z,12.35
2022-10-06T03:58:45.668Z,9.52
2022-10-06T03:59:10.273Z,10.40
2022-10-06T03:59:34.913Z,8.95
2022-10-06T03:59:59.938Z,8.52
2022-10-06T04:00:22.878Z,9.38
2022-10-06T04:00:46.589Z,11.35
2022-10-06T04:01:10.498Z,10.73
2022-10-06T04:01:34.519Z,10.80
2022-10-06T04:01:59.902Z,10.80
2022-10-06T04:02:24.939Z,9.48
2022-10-06T04:02:47.675Z,9.70
2022-10-06T04:03:10.357Z,8.68
2022-10-06T04:03:33.115Z,10.60
2022-10-06T04:03:56.159Z,9.15
2022-10-06T04:04:18.854Z,9.27
2022-10-06T04:04:41.504Z,8.80
2022-10-06T04:05:06.662Z,8.32
2022-10-06T04:05:29.329Z,8.48
2022-10-06T04:05:55.479Z,8.65
2022-10-06T04:06:19.212Z,8.95
2022-10-06T04:06:43.184Z,7.50
2022-10-06T04:07:05.995Z,8.38
2022-10-06T04:07:28.725Z,9.07
2022-10-06T04:07:53.654Z,11.23
2022-10-06T04:08:16.409Z,8.80
2022-10-06T04:08:39.674Z,9.05
2022-10-06T04:09:02.475Z,10.05
2022-10-06T04:09:26.638Z,10.70
2022-10-06T04:09:49.297Z,9.35
2022-10-06T04:10:12.065Z,10.80
2022-10-06T04:10:34.861Z,8.75
2022-10-06T04:11:05.164Z,9.50
2022-10-06T04:11:28.955Z,7.97
2022-10-06T04:11:52.796Z,9.27
2022-10-06T04:12:17.883Z,13.05
2022-10-06T04:12:40.581Z,8.25
2022-10-06T04:13:03.315Z,8.02
2022-10-06T04:13:25.990Z,7.53
2022-10-06T04:13:49.126Z,8.73
2022-10-06T04:14:13.955Z,13.13
2022-10-06T04:14:36.650Z,9.60
2022-10-06T04:15:00.255Z,8.82
2022-10-06T04:15:23.216Z,10.20
2022-10-06T04:15:45.993Z,11.27
2022-10-06T04:16:12.794Z,9.80
2022-10-06T04:16:36.225Z,11.65
2022-10-06T04:16:59.700Z,10.88
2022-10-06T04:17:22.421Z,10.13
2022-10-06T04:17:45.216Z,8.23
2022-10-06T04:18:07.880Z,7.97
2022-10-06T04:18:30.923Z,10.32
2022-10-06T04:18:56.380Z,8.55
2022-10-06T04:19:19.201Z,9.77
2022-10-06T04:19:41.921Z,10.05
2022-10-06T04:20:07.291Z,8.80
2022-10-06T04:20:29.945Z,9.60
2022-10-06T04:20:59.691Z,10.35
2022-10-06T04:21:22.405Z,11.10
2022-10-06T04:21:47.102Z,10.50
2022-10-06T04:22:09.738Z,11.40
2022-10-06T04:22:32.487Z,9.50
2022-10-06T04:22:55.753Z,8.88
2022-10-06T04:23:20.898Z,9.98
2022-10-06T04:23:43.654Z,9.40
2022-10-06T04:24:07.046Z,11.52
2022-10-06T04:24:31.260Z,11.90
2022-10-06T04:24:53.966Z,10.88
2022-10-06T04:25:16.811Z,10.20
2022-10-06T04:25:39.510Z,10.88
2022-10-06T04:26:03.032Z,12.00
2022-10-06T04:26:27.062Z,11.20
2022-10-06T04:26:50.409Z,9.65
2022-10-06T04:27:28.381Z,10.10
2022-10-06T04:27:52.965Z,12.32
2022-10-06T04:28:16.072Z,9.70
2022-10-06T04:28:39.349Z,9.65
2022-10-06T04:29:03.200Z,11.32
2022-10-06T04:29:25.925Z,12.00
2022-10-06T04:29:48.661Z,9.35
2022-10-06T04:30:12.728Z,8.63
2022-10-06T04:30:36.005Z,12.93
2022-10-06T04:30:58.800Z,11.05
2022-10-06T04:31:24.126Z,11.10
2022-10-06T04:31:47.276Z,9.85
2022-10-06T04:32:12.140Z,12.07
2022-10-06T04:32:35.362Z,9.95
2022-10-06T04:32:58.089Z,9.60
2022-10-06T04:33:22.953Z,8.90
2022-10-06T04:33:47.069Z,10.18
2022-10-06T04:34:10.987Z,12.90
2022-10-06T04:34:33.747Z,11.13
2022-10-06T04:34:56.459Z,10.30
2022-10-06T04:35:21.834Z,10.88
2022-10-06T04:35:44.564Z,12.55
2022-10-06T04:36:08.386Z,14.20
2022-10-06T04:36:32.495Z,11.52
2022-10-06T04:36:55.175Z,11.98
2022-10-06T04:37:17.915Z,12.73
2022-10-06T04:37:41.294Z,10.27
2022-10-06T04:38:04.065Z,8.88
2022-10-06T04:38:28.424Z,8.48
2022-10-06T04:38:54.179Z,9.32
2022-10-06T04:39:16.886Z,10.40
2022-10-06T04:39:41.292Z,11.00
2022-10-06T04:40:04.329Z,13.95
2022-10-06T04:40:27.044Z,11.85
2022-10-06T04:40:49.897Z,8.73
2022-10-06T04:41:14.304Z,8.45
2022-10-06T04:41:37.924Z,8.95
2022-10-06T04:42:00.829Z,10.38
2022-10-06T04:42:27.892Z,11.82
2022-10-06T04:42:53.016Z,11.20
2022-10-06T04:43:15.732Z,13.52
2022-10-06T04:43:38.404Z,12.93
2022-10-06T04:44:02.353Z,12.48
2022-10-06T04:44:25.123Z,11.95
2022-10-06T04:44:47.938Z,12.93
2022-10-06T04:45:11.316Z,13.40
2022-10-06T04:45:34.104Z,14.30
2022-10-06T04:45:58.268Z,13.15
2022-10-06T04:46:42.225Z,12.70
2022-10-06T04:47:04.553Z,14.15
2022-10-06T04:47:27.284Z,13.65
2022-10-06T04:47:50.241Z,12.00
2022-10-06T04:48:13.932Z,10.57
2022-10-06T04:48:36.663Z,9.88
2022-10-06T04:48:59.349Z,8.85
2022-10-06T04:49:22.242Z,7.97
2022-10-06T04:49:47.201Z,9.30
2022-10-06T04:50:10.529Z,11.98
2022-10-06T04:50:33.277Z,9.95
2022-10-06T04:50:56.631Z,13.80
2022-10-06T04:51:19.512Z,15.70
2022-10-06T04:51:42.236Z,11.98
2022-10-06T04:52:04.977Z,11.85
2022-10-06T04:52:30.056Z,15.20
2022-10-06T04:52:54.167Z,13.45
2022-10-06T04:53:16.892Z,11.40
2022-10-06T04:53:39.721Z,14.60
2022-10-06T04:54:03.843Z,14.63
2022-10-06T04:54:31.311Z,12.65
2022-10-06T04:54:58.107Z,13.10
2022-10-06T04:55:21.771Z,15.65
2022-10-06T04:55:44.533Z,9.93
2022-10-06T04:56:08.381Z,11.90
2022-10-06T04:56:31.377Z,14.68
2022-10-06T04:56:54.072Z,14.27
2022-10-06T04:57:17.009Z,13.80
2022-10-06T04:57:39.760Z,13.10
2022-10-06T04:58:02.429Z,10.98
2022-10-06T04:58:25.123Z,11.02
2022-10-06T04:58:48.854Z,14.13
2022-10-06T04:59:11.571Z,11.07
2022-10-06T04:59:52.453Z,11.88
2022-10-06T05:00:25.384Z,12.07
2022-10-06T05:00:49.438Z,11.77
2022-10-06T05:01:16.407Z,12.25
2022-10-06T05:01:39.185Z,11.07
2022-10-06T05:02:02.797Z,12.43
2022-10-06T05:02:25.575Z,12.70
2022-10-06T05:02:48.329Z,13.63
2022-10-06T05:03:11.109Z,15.10
2022-10-06T05:03:33.787Z,12.30
2022-10-06T05:03:57.276Z,12.80
2022-10-06T05:04:20.091Z,13.88
2022-10-06T05:04:45.005Z,12.68
2022-10-06T05:05:08.099Z,14.00
2022-10-06T05:05:31.679Z,16.50
2022-10-06T05:05:54.575Z,15.57